sensor_id;sensor_type;location;lat;lon;timestamp;P1;durP1;ratioP1;P2;durP2;ratioP2
36189;SDS011;22232;50.914;13.858;2022-07-24T00:00:17;9.75;;;7.72;;
36189;SDS011;22232;50.914;13.858;2022-07-24T00:02:45;13.57;;;8.85;;
36189;SDS011;22232;50.914;13.858;2022-07-24T00:05:12;12.85;;;9.02;;
36189;SDS011;22232;50.914;13.858;2022-07-24T00:07:40;10.45;;;8.18;;
36189;SDS011;22232;50.914;13.858;2022-07-24T00:10:08;11.80;;;8.02;;
36189;SDS011;22232;50.914;13.858;2022-07-24T00:12:37;10.40;;;7.93;;
36189;SDS011;22232;50.914;13.858;2022-07-24T00:15:05;10.05;;;8.02;;
36189;SDS011;22232;50.914;13.858;2022-07-24T00:17:33;10.40;;;8.23;;
36189;SDS011;22232;50.914;13.858;2022-07-24T00:20:00;12.90;;;8.60;;
36189;SDS011;22232;50.914;13.858;2022-07-24T00:22:28;9.40;;;7.68;;
36189;SDS011;22232;50.914;13.858;2022-07-24T00:24:56;9.85;;;8.10;;
36189;SDS011;22232;50.914;13.858;2022-07-24T00:27:23;10.57;;;7.25;;
36189;SDS011;22232;50.914;13.858;2022-07-24T00:29:51;9.52;;;7.55;;
36189;SDS011;22232;50.914;13.858;2022-07-24T00:32:18;11.27;;;6.90;;
36189;SDS011;22232;50.914;13.858;2022-07-24T00:34:46;10.77;;;7.20;;
36189;SDS011;22232;50.914;13.858;2022-07-24T00:37:14;8.30;;;6.35;;
36189;SDS011;22232;50.914;13.858;2022-07-24T00:39:44;8.25;;;6.40;;
36189;SDS011;22232;50.914;13.858;2022-07-24T00:42:14;8.50;;;6.22;;
36189;SDS011;22232;50.914;13.858;2022-07-24T00:44:42;10.25;;;6.43;;
36189;SDS011;22232;50.914;13.858;2022-07-24T00:47:09;10.90;;;6.72;;
36189;SDS011;22232;50.914;13.858;2022-07-24T00:49:37;7.50;;;6.43;;
36189;SDS011;22232;50.914;13.858;2022-07-24T00:52:04;8.02;;;6.10;;
36189;SDS011;22232;50.914;13.858;2022-07-24T00:54:32;9.27;;;5.78;;
36189;SDS011;22232;50.914;13.858;2022-07-24T00:57:00;7.43;;;6.13;;
36189;SDS011;22232;50.914;13.858;2022-07-24T00:59:28;7.10;;;6.07;;
36189;SDS011;22232;50.914;13.858;2022-07-24T01:01:56;7.38;;;6.45;;
36189;SDS011;22232;50.914;13.858;2022-07-24T01:04:23;8.93;;;6.55;;
36189;SDS011;22232;50.914;13.858;2022-07-24T01:06:51;8.70;;;5.50;;
36189;SDS011;22232;50.914;13.858;2022-07-24T01:09:19;8.27;;;5.55;;
36189;SDS011;22232;50.914;13.858;2022-07-24T01:11:47;9.40;;;5.68;;
36189;SDS011;22232;50.914;13.858;2022-07-24T01:14:15;8.60;;;5.70;;
36189;SDS011;22232;50.914;13.858;2022-07-24T01:16:43;5.60;;;4.78;;
36189;SDS011;22232;50.914;13.858;2022-07-24T01:19:12;7.38;;;5.40;;
36189;SDS011;22232;50.914;13.858;2022-07-24T01:21:49;6.93;;;4.93;;
36189;SDS011;22232;50.914;13.858;2022-07-24T01:24:19;7.13;;;5.72;;
36189;SDS011;22232;50.914;13.858;2022-07-24T01:26:47;6.90;;;5.65;;
36189;SDS011;22232;50.914;13.858;2022-07-24T01:29:15;6.43;;;5.57;;
36189;SDS011;22232;50.914;13.858;2022-07-24T01:31:43;8.70;;;5.60;;
36189;SDS011;22232;50.914;13.858;2022-07-24T01:34:11;7.60;;;5.22;;
36189;SDS011;22232;50.914;13.858;2022-07-24T01:36:40;6.78;;;5.60;;
36189;SDS011;22232;50.914;13.858;2022-07-24T01:39:08;7.97;;;5.50;;
36189;SDS011;22232;50.914;13.858;2022-07-24T01:41:35;6.95;;;5.53;;
36189;SDS011;22232;50.914;13.858;2022-07-24T01:44:03;6.82;;;5.05;;
36189;SDS011;22232;50.914;13.858;2022-07-24T01:46:31;6.35;;;4.93;;
36189;SDS011;22232;50.914;13.858;2022-07-24T01:48:58;5.45;;;4.70;;
36189;SDS011;22232;50.914;13.858;2022-07-24T01:51:26;6.03;;;4.88;;
36189;SDS011;22232;50.914;13.858;2022-07-24T01:53:54;6.82;;;5.55;;
36189;SDS011;22232;50.914;13.858;2022-07-24T01:56:22;8.93;;;6.72;;
36189;SDS011;22232;50.914;13.858;2022-07-24T01:58:54;6.65;;;5.85;;
36189;SDS011;22232;50.914;13.858;2022-07-24T02:01:22;6.88;;;5.88;;
36189;SDS011;22232;50.914;13.858;2022-07-24T02:03:49;6.90;;;5.55;;
36189;SDS011;22232;50.914;13.858;2022-07-24T02:06:17;8.45;;;6.63;;
36189;SDS011;22232;50.914;13.858;2022-07-24T02:08:45;8.02;;;6.28;;
36189;SDS011;22232;50.914;13.858;2022-07-24T02:11:13;6.28;;;5.35;;
36189;SDS011;22232;50.914;13.858;2022-07-24T02:13:40;8.77;;;5.32;;
36189;SDS011;22232;50.914;13.858;2022-07-24T02:16:08;8.68;;;6.40;;
36189;SDS011;22232;50.914;13.858;2022-07-24T02:18:36;7.65;;;5.57;;
36189;SDS011;22232;50.914;13.858;2022-07-24T02:21:03;10.93;;;7.25;;
36189;SDS011;22232;50.914;13.858;2022-07-24T02:23:31;7.38;;;5.82;;
36189;SDS011;22232;50.914;13.858;2022-07-24T02:25:59;7.65;;;6.20;;
36189;SDS011;22232;50.914;13.858;2022-07-24T02:28:26;6.60;;;5.28;;
36189;SDS011;22232;50.914;13.858;2022-07-24T02:30:54;8.07;;;5.90;;
36189;SDS011;22232;50.914;13.858;2022-07-24T02:33:21;8.23;;;5.90;;
36189;SDS011;22232;50.914;13.858;2022-07-24T02:35:49;7.60;;;6.25;;
36189;SDS011;22232;50.914;13.858;2022-07-24T02:38:17;8.18;;;5.65;;
36189;SDS011;22232;50.914;13.858;2022-07-24T02:40:44;8.45;;;5.85;;
36189;SDS011;22232;50.914;13.858;2022-07-24T02:43:12;8.05;;;5.45;;
36189;SDS011;22232;50.914;13.858;2022-07-24T02:45:39;6.80;;;5.40;;
36189;SDS011;22232;50.914;13.858;2022-07-24T02:48:07;7.72;;;5.38;;
36189;SDS011;22232;50.914;13.858;2022-07-24T02:50:35;7.55;;;5.72;;
36189;SDS011;22232;50.914;13.858;2022-07-24T02:53:04;7.40;;;5.82;;
36189;SDS011;22232;50.914;13.858;2022-07-24T02:55:33;7.97;;;5.63;;
36189;SDS011;22232;50.914;13.858;2022-07-24T02:58:00;7.43;;;5.78;;
36189;SDS011;22232;50.914;13.858;2022-07-24T03:00:28;7.10;;;5.65;;
36189;SDS011;22232;50.914;13.858;2022-07-24T03:02:56;7.53;;;5.13;;
36189;SDS011;22232;50.914;13.858;2022-07-24T03:05:24;8.27;;;5.50;;
36189;SDS011;22232;50.914;13.858;2022-07-24T03:07:52;8.95;;;5.32;;
36189;SDS011;22232;50.914;13.858;2022-07-24T03:10:20;7.50;;;5.45;;
36189;SDS011;22232;50.914;13.858;2022-07-24T03:12:47;6.95;;;5.43;;
36189;SDS011;22232;50.914;13.858;2022-07-24T03:15:17;6.10;;;5.50;;
36189;SDS011;22232;50.914;13.858;2022-07-24T03:17:48;6.53;;;5.25;;
36189;SDS011;22232;50.914;13.858;2022-07-24T03:20:23;6.93;;;5.63;;
36189;SDS011;22232;50.914;13.858;2022-07-24T03:22:52;7.38;;;5.78;;
36189;SDS011;22232;50.914;13.858;2022-07-24T03:25:20;9.65;;;6.68;;
36189;SDS011;22232;50.914;13.858;2022-07-24T03:27:48;10.55;;;5.95;;
36189;SDS011;22232;50.914;13.858;2022-07-24T03:30:16;6.57;;;5.25;;
36189;SDS011;22232;50.914;13.858;2022-07-24T03:32:45;7.85;;;5.63;;
36189;SDS011;22232;50.914;13.858;2022-07-24T03:35:13;8.88;;;5.32;;
36189;SDS011;22232;50.914;13.858;2022-07-24T03:37:41;5.93;;;4.70;;
36189;SDS011;22232;50.914;13.858;2022-07-24T03:40:08;6.03;;;5.10;;
36189;SDS011;22232;50.914;13.858;2022-07-24T03:42:36;6.32;;;5.13;;
36189;SDS011;22232;50.914;13.858;2022-07-24T03:45:04;7.43;;;4.78;;
36189;SDS011;22232;50.914;13.858;2022-07-24T03:47:32;5.88;;;4.88;;
36189;SDS011;22232;50.914;13.858;2022-07-24T03:50:00;6.72;;;5.03;;
36189;SDS011;22232;50.914;13.858;2022-07-24T03:52:28;6.57;;;5.13;;
36189;SDS011;22232;50.914;13.858;2022-07-24T03:54:55;7.40;;;5.55;;
36189;SDS011;22232;50.914;13.858;2022-07-24T03:57:23;10.18;;;5.68;;
36189;SDS011;22232;50.914;13.858;2022-07-24T03:59:51;8.10;;;6.20;;
36189;SDS011;22232;50.914;13.858;2022-07-24T04:02:19;12.73;;;8.07;;
36189;SDS011;22232;50.914;13.858;2022-07-24T04:04:46;10.45;;;8.20;;
36189;SDS011;22232;50.914;13.858;2022-07-24T04:07:14;13.65;;;8.82;;
36189;SDS011;22232;50.914;13.858;2022-07-24T04:09:42;11.25;;;7.68;;
36189;SDS011;22232;50.914;13.858;2022-07-24T04:12:09;9.77;;;7.32;;
36189;SDS011;22232;50.914;13.858;2022-07-24T04:14:37;11.35;;;7.90;;
36189;SDS011;22232;50.914;13.858;2022-07-24T04:17:04;12.45;;;8.80;;
36189;SDS011;22232;50.914;13.858;2022-07-24T04:19:32;16.60;;;10.18;;
36189;SDS011;22232;50.914;13.858;2022-07-24T04:22:00;16.10;;;10.70;;
36189;SDS011;22232;50.914;13.858;2022-07-24T04:24:28;16.65;;;10.43;;
36189;SDS011;22232;50.914;13.858;2022-07-24T04:26:55;14.25;;;10.20;;
36189;SDS011;22232;50.914;13.858;2022-07-24T04:29:23;14.70;;;10.45;;
36189;SDS011;22232;50.914;13.858;2022-07-24T04:31:51;17.17;;;10.82;;
36189;SDS011;22232;50.914;13.858;2022-07-24T04:34:18;15.65;;;11.45;;
36189;SDS011;22232;50.914;13.858;2022-07-24T04:36:46;16.95;;;11.40;;
36189;SDS011;22232;50.914;13.858;2022-07-24T04:39:14;16.05;;;10.70;;
36189;SDS011;22232;50.914;13.858;2022-07-24T04:41:42;12.43;;;10.05;;
36189;SDS011;22232;50.914;13.858;2022-07-24T04:44:10;12.98;;;10.20;;
36189;SDS011;22232;50.914;13.858;2022-07-24T04:46:38;11.43;;;8.15;;
36189;SDS011;22232;50.914;13.858;2022-07-24T04:49:05;14.18;;;8.50;;
36189;SDS011;22232;50.914;13.858;2022-07-24T04:51:33;10.20;;;7.15;;
36189;SDS011;22232;50.914;13.858;2022-07-24T04:54:01;10.80;;;7.75;;
36189;SDS011;22232;50.914;13.858;2022-07-24T04:56:29;9.80;;;7.93;;
36189;SDS011;22232;50.914;13.858;2022-07-24T04:58:59;12.20;;;8.30;;
36189;SDS011;22232;50.914;13.858;2022-07-24T05:01:29;9.95;;;7.53;;
36189;SDS011;22232;50.914;13.858;2022-07-24T05:03:57;12.45;;;7.45;;
36189;SDS011;22232;50.914;13.858;2022-07-24T05:06:26;11.55;;;8.65;;
36189;SDS011;22232;50.914;13.858;2022-07-24T05:08:54;12.18;;;7.70;;
36189;SDS011;22232;50.914;13.858;2022-07-24T05:11:21;9.45;;;6.38;;
36189;SDS011;22232;50.914;13.858;2022-07-24T05:13:49;8.27;;;6.78;;
36189;SDS011;22232;50.914;13.858;2022-07-24T05:16:17;7.15;;;5.63;;
36189;SDS011;22232;50.914;13.858;2022-07-24T05:18:44;9.05;;;4.93;;
36189;SDS011;22232;50.914;13.858;2022-07-24T05:21:31;9.18;;;6.63;;
36189;SDS011;22232;50.914;13.858;2022-07-24T05:24:01;10.40;;;8.30;;
36189;SDS011;22232;50.914;13.858;2022-07-24T05:26:29;9.30;;;6.68;;
36189;SDS011;22232;50.914;13.858;2022-07-24T05:28:59;13.35;;;8.93;;
36189;SDS011;22232;50.914;13.858;2022-07-24T05:31:27;10.55;;;8.13;;
36189;SDS011;22232;50.914;13.858;2022-07-24T05:33:55;13.20;;;8.93;;
36189;SDS011;22232;50.914;13.858;2022-07-24T05:36:25;13.43;;;10.05;;
36189;SDS011;22232;50.914;13.858;2022-07-24T05:38:52;15.02;;;10.13;;
36189;SDS011;22232;50.914;13.858;2022-07-24T05:41:20;14.15;;;9.48;;
36189;SDS011;22232;50.914;13.858;2022-07-24T05:43:48;14.88;;;10.43;;
36189;SDS011;22232;50.914;13.858;2022-07-24T05:46:15;14.15;;;10.55;;
36189;SDS011;22232;50.914;13.858;2022-07-24T05:48:45;13.25;;;9.82;;
36189;SDS011;22232;50.914;13.858;2022-07-24T05:51:13;13.50;;;9.68;;
36189;SDS011;22232;50.914;13.858;2022-07-24T05:53:40;12.63;;;9.63;;
36189;SDS011;22232;50.914;13.858;2022-07-24T05:56:08;11.10;;;8.65;;
36189;SDS011;22232;50.914;13.858;2022-07-24T05:58:36;10.00;;;8.45;;
36189;SDS011;22232;50.914;13.858;2022-07-24T06:01:04;10.07;;;7.55;;
36189;SDS011;22232;50.914;13.858;2022-07-24T06:03:32;11.52;;;7.95;;
36189;SDS011;22232;50.914;13.858;2022-07-24T06:05:59;7.45;;;6.50;;
36189;SDS011;22232;50.914;13.858;2022-07-24T06:08:27;9.63;;;6.43;;
36189;SDS011;22232;50.914;13.858;2022-07-24T06:10:55;10.65;;;5.63;;
36189;SDS011;22232;50.914;13.858;2022-07-24T06:13:22;8.70;;;6.20;;
36189;SDS011;22232;50.914;13.858;2022-07-24T06:15:51;8.38;;;5.50;;
36189;SDS011;22232;50.914;13.858;2022-07-24T06:18:19;6.60;;;4.15;;
36189;SDS011;22232;50.914;13.858;2022-07-24T06:20:47;6.55;;;4.70;;
36189;SDS011;22232;50.914;13.858;2022-07-24T06:23:15;6.05;;;4.68;;
36189;SDS011;22232;50.914;13.858;2022-07-24T06:25:48;6.22;;;4.53;;
36189;SDS011;22232;50.914;13.858;2022-07-24T06:28:15;6.00;;;4.30;;
36189;SDS011;22232;50.914;13.858;2022-07-24T06:30:43;5.40;;;4.05;;
36189;SDS011;22232;50.914;13.858;2022-07-24T06:33:10;8.07;;;3.92;;
36189;SDS011;22232;50.914;13.858;2022-07-24T06:35:38;7.70;;;4.05;;
36189;SDS011;22232;50.914;13.858;2022-07-24T06:38:06;5.95;;;4.13;;
36189;SDS011;22232;50.914;13.858;2022-07-24T06:40:33;5.32;;;3.50;;
36189;SDS011;22232;50.914;13.858;2022-07-24T06:43:01;6.97;;;4.18;;
36189;SDS011;22232;50.914;13.858;2022-07-24T06:45:29;4.38;;;3.10;;
36189;SDS011;22232;50.914;13.858;2022-07-24T06:48:00;8.27;;;5.68;;
36189;SDS011;22232;50.914;13.858;2022-07-24T06:50:28;7.82;;;5.65;;
36189;SDS011;22232;50.914;13.858;2022-07-24T06:52:56;7.15;;;5.30;;
36189;SDS011;22232;50.914;13.858;2022-07-24T06:55:24;8.95;;;4.68;;
36189;SDS011;22232;50.914;13.858;2022-07-24T06:57:51;7.03;;;4.82;;
36189;SDS011;22232;50.914;13.858;2022-07-24T07:00:19;5.95;;;3.75;;
36189;SDS011;22232;50.914;13.858;2022-07-24T07:02:47;5.82;;;4.22;;
36189;SDS011;22232;50.914;13.858;2022-07-24T07:05:15;4.60;;;3.80;;
36189;SDS011;22232;50.914;13.858;2022-07-24T07:07:42;2.28;;;2.08;;
36189;SDS011;22232;50.914;13.858;2022-07-24T07:10:10;2.15;;;1.60;;
36189;SDS011;22232;50.914;13.858;2022-07-24T07:12:38;2.03;;;1.50;;
36189;SDS011;22232;50.914;13.858;2022-07-24T07:15:11;3.42;;;1.67;;
36189;SDS011;22232;50.914;13.858;2022-07-24T07:17:39;2.70;;;1.70;;
36189;SDS011;22232;50.914;13.858;2022-07-24T07:20:09;2.72;;;1.55;;
36189;SDS011;22232;50.914;13.858;2022-07-24T07:22:39;2.60;;;1.77;;
36189;SDS011;22232;50.914;13.858;2022-07-24T07:25:08;4.53;;;1.77;;
36189;SDS011;22232;50.914;13.858;2022-07-24T07:27:37;3.90;;;1.90;;
36189;SDS011;22232;50.914;13.858;2022-07-24T07:30:07;3.28;;;2.00;;
36189;SDS011;22232;50.914;13.858;2022-07-24T07:32:36;3.45;;;2.10;;
36189;SDS011;22232;50.914;13.858;2022-07-24T07:35:04;3.53;;;2.72;;
36189;SDS011;22232;50.914;13.858;2022-07-24T07:37:48;4.18;;;2.65;;
36189;SDS011;22232;50.914;13.858;2022-07-24T07:40:17;3.38;;;2.20;;
36189;SDS011;22232;50.914;13.858;2022-07-24T07:42:44;2.83;;;2.50;;
36189;SDS011;22232;50.914;13.858;2022-07-24T07:45:12;4.43;;;2.90;;
36189;SDS011;22232;50.914;13.858;2022-07-24T07:47:40;2.38;;;2.17;;
36189;SDS011;22232;50.914;13.858;2022-07-24T07:50:08;3.83;;;2.63;;
36189;SDS011;22232;50.914;13.858;2022-07-24T07:52:36;5.45;;;2.15;;
36189;SDS011;22232;50.914;13.858;2022-07-24T07:55:04;2.70;;;2.40;;
36189;SDS011;22232;50.914;13.858;2022-07-24T07:57:32;2.92;;;2.22;;
36189;SDS011;22232;50.914;13.858;2022-07-24T08:00:20;7.57;;;3.10;;
36189;SDS011;22232;50.914;13.858;2022-07-24T08:02:48;4.28;;;2.78;;
36189;SDS011;22232;50.914;13.858;2022-07-24T08:05:15;4.68;;;2.92;;
36189;SDS011;22232;50.914;13.858;2022-07-24T08:07:43;5.47;;;2.35;;
36189;SDS011;22232;50.914;13.858;2022-07-24T08:10:11;2.70;;;2.50;;
36189;SDS011;22232;50.914;13.858;2022-07-24T08:12:39;3.95;;;2.42;;
36189;SDS011;22232;50.914;13.858;2022-07-24T08:15:06;4.45;;;2.60;;
36189;SDS011;22232;50.914;13.858;2022-07-24T08:17:35;10.80;;;3.72;;
36189;SDS011;22232;50.914;13.858;2022-07-24T08:20:02;3.47;;;2.85;;
36189;SDS011;22232;50.914;13.858;2022-07-24T08:22:30;3.45;;;2.38;;
36189;SDS011;22232;50.914;13.858;2022-07-24T08:24:58;6.03;;;2.67;;
36189;SDS011;22232;50.914;13.858;2022-07-24T08:27:26;4.68;;;3.45;;
36189;SDS011;22232;50.914;13.858;2022-07-24T08:29:54;4.95;;;3.00;;
36189;SDS011;22232;50.914;13.858;2022-07-24T08:32:37;3.85;;;2.80;;
36189;SDS011;22232;50.914;13.858;2022-07-24T08:35:08;4.80;;;2.67;;
36189;SDS011;22232;50.914;13.858;2022-07-24T08:37:39;3.65;;;2.78;;
36189;SDS011;22232;50.914;13.858;2022-07-24T08:40:08;6.25;;;2.78;;
36189;SDS011;22232;50.914;13.858;2022-07-24T08:42:37;3.83;;;3.33;;
36189;SDS011;22232;50.914;13.858;2022-07-24T08:45:06;6.32;;;3.13;;
36189;SDS011;22232;50.914;13.858;2022-07-24T08:47:34;5.38;;;2.80;;
36189;SDS011;22232;50.914;13.858;2022-07-24T08:50:05;3.25;;;2.75;;
36189;SDS011;22232;50.914;13.858;2022-07-24T08:52:34;4.60;;;2.45;;
36189;SDS011;22232;50.914;13.858;2022-07-24T08:55:10;3.25;;;2.25;;
36189;SDS011;22232;50.914;13.858;2022-07-24T08:57:38;5.78;;;2.50;;
36189;SDS011;22232;50.914;13.858;2022-07-24T09:00:05;2.22;;;2.10;;
36189;SDS011;22232;50.914;13.858;2022-07-24T09:02:37;4.85;;;2.70;;
36189;SDS011;22232;50.914;13.858;2022-07-24T09:05:05;2.17;;;2.05;;
36189;SDS011;22232;50.914;13.858;2022-07-24T09:07:33;4.82;;;2.55;;
36189;SDS011;22232;50.914;13.858;2022-07-24T09:10:03;2.42;;;2.22;;
36189;SDS011;22232;50.914;13.858;2022-07-24T09:12:34;5.60;;;2.42;;
36189;SDS011;22232;50.914;13.858;2022-07-24T09:15:10;3.38;;;2.00;;
36189;SDS011;22232;50.914;13.858;2022-07-24T09:17:46;4.63;;;2.30;;
36189;SDS011;22232;50.914;13.858;2022-07-24T09:20:15;6.13;;;2.30;;
36189;SDS011;22232;50.914;13.858;2022-07-24T09:22:43;4.13;;;2.40;;
36189;SDS011;22232;50.914;13.858;2022-07-24T09:32:57;2.55;;;2.15;;
36189;SDS011;22232;50.914;13.858;2022-07-24T09:35:30;3.88;;;2.42;;
36189;SDS011;22232;50.914;13.858;2022-07-24T09:38:00;2.70;;;2.33;;
36189;SDS011;22232;50.914;13.858;2022-07-24T09:40:33;3.95;;;1.92;;
36189;SDS011;22232;50.914;13.858;2022-07-24T09:46:07;3.33;;;2.28;;
36189;SDS011;22232;50.914;13.858;2022-07-24T09:48:34;4.07;;;2.25;;
36189;SDS011;22232;50.914;13.858;2022-07-24T09:51:08;2.72;;;2.03;;
36189;SDS011;22232;50.914;13.858;2022-07-24T09:53:38;2.97;;;2.03;;
36189;SDS011;22232;50.914;13.858;2022-07-24T09:56:12;2.15;;;1.95;;
36189;SDS011;22232;50.914;13.858;2022-07-24T10:01:12;3.97;;;2.15;;
36189;SDS011;22232;50.914;13.858;2022-07-24T10:03:42;6.07;;;2.70;;
36189;SDS011;22232;50.914;13.858;2022-07-24T10:06:13;4.70;;;2.30;;
36189;SDS011;22232;50.914;13.858;2022-07-24T10:08:45;2.28;;;2.08;;
36189;SDS011;22232;50.914;13.858;2022-07-24T10:11:14;2.88;;;2.20;;
36189;SDS011;22232;50.914;13.858;2022-07-24T10:13:43;2.83;;;2.25;;
36189;SDS011;22232;50.914;13.858;2022-07-24T10:21:09;2.70;;;2.22;;
36189;SDS011;22232;50.914;13.858;2022-07-24T10:29:09;2.45;;;2.25;;
36189;SDS011;22232;50.914;13.858;2022-07-24T10:31:42;2.45;;;2.25;;
36189;SDS011;22232;50.914;13.858;2022-07-24T10:36:57;1.90;;;1.80;;
36189;SDS011;22232;50.914;13.858;2022-07-24T10:40:35;2.05;;;1.85;;
36189;SDS011;22232;50.914;13.858;2022-07-24T10:42:31;3.88;;;2.20;;
36189;SDS011;22232;50.914;13.858;2022-07-24T10:45:18;3.15;;;2.22;;
36189;SDS011;22232;50.914;13.858;2022-07-24T10:47:46;3.58;;;2.47;;
36189;SDS011;22232;50.914;13.858;2022-07-24T10:50:14;2.53;;;2.10;;
36189;SDS011;22232;50.914;13.858;2022-07-24T10:52:42;4.18;;;2.10;;
36189;SDS011;22232;50.914;13.858;2022-07-24T11:03:20;2.50;;;2.03;;
36189;SDS011;22232;50.914;13.858;2022-07-24T11:08:38;2.95;;;2.10;;
36189;SDS011;22232;50.914;13.858;2022-07-24T11:11:16;4.40;;;2.42;;
36189;SDS011;22232;50.914;13.858;2022-07-24T11:13:47;4.30;;;2.20;;
36189;SDS011;22232;50.914;13.858;2022-07-24T11:16:18;3.72;;;2.35;;
36189;SDS011;22232;50.914;13.858;2022-07-24T11:21:32;3.67;;;2.38;;
36189;SDS011;22232;50.914;13.858;2022-07-24T11:24:20;2.95;;;2.00;;
36189;SDS011;22232;50.914;13.858;2022-07-24T11:26:50;3.42;;;2.17;;
36189;SDS011;22232;50.914;13.858;2022-07-24T11:29:20;3.75;;;2.30;;
36189;SDS011;22232;50.914;13.858;2022-07-24T11:32:09;2.42;;;1.95;;
36189;SDS011;22232;50.914;13.858;2022-07-24T11:34:46;3.17;;;2.25;;
36189;SDS011;22232;50.914;13.858;2022-07-24T11:37:17;5.65;;;2.35;;
36189;SDS011;22232;50.914;13.858;2022-07-24T11:39:45;7.05;;;2.47;;
36189;SDS011;22232;50.914;13.858;2022-07-24T11:42:14;2.67;;;2.38;;
36189;SDS011;22232;50.914;13.858;2022-07-24T11:44:43;3.85;;;2.35;;
36189;SDS011;22232;50.914;13.858;2022-07-24T11:47:20;5.18;;;2.20;;
36189;SDS011;22232;50.914;13.858;2022-07-24T11:49:53;3.42;;;2.20;;
36189;SDS011;22232;50.914;13.858;2022-07-24T11:57:44;2.85;;;2.20;;
36189;SDS011;22232;50.914;13.858;2022-07-24T12:00:35;3.63;;;2.33;;
36189;SDS011;22232;50.914;13.858;2022-07-24T12:03:02;3.53;;;2.95;;
36189;SDS011;22232;50.914;13.858;2022-07-24T12:05:33;3.05;;;2.60;;
36189;SDS011;22232;50.914;13.858;2022-07-24T12:08:23;3.47;;;2.40;;
36189;SDS011;22232;50.914;13.858;2022-07-24T12:10:55;2.95;;;2.65;;
36189;SDS011;22232;50.914;13.858;2022-07-24T12:13:23;3.65;;;2.42;;
36189;SDS011;22232;50.914;13.858;2022-07-24T12:15:51;2.58;;;2.22;;
36189;SDS011;22232;50.914;13.858;2022-07-24T12:18:19;3.10;;;2.40;;
36189;SDS011;22232;50.914;13.858;2022-07-24T12:20:58;6.65;;;2.45;;
36189;SDS011;22232;50.914;13.858;2022-07-24T12:23:27;3.78;;;2.50;;
36189;SDS011;22232;50.914;13.858;2022-07-24T12:25:59;2.95;;;2.40;;
36189;SDS011;22232;50.914;13.858;2022-07-24T12:28:28;2.90;;;1.98;;
36189;SDS011;22232;50.914;13.858;2022-07-24T12:30:56;3.67;;;2.53;;
36189;SDS011;22232;50.914;13.858;2022-07-24T12:33:24;5.13;;;2.47;;
36189;SDS011;22232;50.914;13.858;2022-07-24T12:35:58;6.03;;;2.28;;
36189;SDS011;22232;50.914;13.858;2022-07-24T12:38:40;2.58;;;2.33;;
36189;SDS011;22232;50.914;13.858;2022-07-24T12:41:17;4.03;;;2.53;;
36189;SDS011;22232;50.914;13.858;2022-07-24T12:43:52;2.78;;;2.55;;
36189;SDS011;22232;50.914;13.858;2022-07-24T12:46:22;2.38;;;2.22;;
36189;SDS011;22232;50.914;13.858;2022-07-24T12:51:56;2.75;;;2.35;;
36189;SDS011;22232;50.914;13.858;2022-07-24T12:54:28;3.30;;;2.53;;
36189;SDS011;22232;50.914;13.858;2022-07-24T12:56:58;3.25;;;2.65;;
36189;SDS011;22232;50.914;13.858;2022-07-24T12:59:38;4.68;;;2.70;;
36189;SDS011;22232;50.914;13.858;2022-07-24T13:02:09;4.60;;;2.47;;
36189;SDS011;22232;50.914;13.858;2022-07-24T13:04:44;2.67;;;2.38;;
36189;SDS011;22232;50.914;13.858;2022-07-24T13:07:15;6.15;;;2.60;;
36189;SDS011;22232;50.914;13.858;2022-07-24T13:09:44;2.97;;;2.65;;
36189;SDS011;22232;50.914;13.858;2022-07-24T13:12:12;3.42;;;2.33;;
36189;SDS011;22232;50.914;13.858;2022-07-24T13:14:40;5.47;;;2.25;;
36189;SDS011;22232;50.914;13.858;2022-07-24T13:17:12;4.50;;;2.50;;
36189;SDS011;22232;50.914;13.858;2022-07-24T13:19:42;2.85;;;2.20;;
36189;SDS011;22232;50.914;13.858;2022-07-24T13:22:15;2.47;;;2.28;;
36189;SDS011;22232;50.914;13.858;2022-07-24T13:24:43;2.47;;;2.20;;
36189;SDS011;22232;50.914;13.858;2022-07-24T13:27:12;2.50;;;2.30;;
36189;SDS011;22232;50.914;13.858;2022-07-24T13:29:41;3.15;;;2.50;;
36189;SDS011;22232;50.914;13.858;2022-07-24T13:32:10;3.55;;;2.40;;
36189;SDS011;22232;50.914;13.858;2022-07-24T13:34:38;2.35;;;2.15;;
36189;SDS011;22232;50.914;13.858;2022-07-24T13:37:06;2.67;;;2.38;;
36189;SDS011;22232;50.914;13.858;2022-07-24T13:39:36;2.92;;;2.63;;
36189;SDS011;22232;50.914;13.858;2022-07-24T13:42:08;2.65;;;2.45;;
36189;SDS011;22232;50.914;13.858;2022-07-24T13:44:36;3.25;;;2.28;;
36189;SDS011;22232;50.914;13.858;2022-07-24T13:47:04;4.75;;;2.50;;
36189;SDS011;22232;50.914;13.858;2022-07-24T13:49:32;2.70;;;2.50;;
36189;SDS011;22232;50.914;13.858;2022-07-24T13:51:59;2.97;;;2.75;;
36189;SDS011;22232;50.914;13.858;2022-07-24T13:54:27;2.75;;;2.05;;
36189;SDS011;22232;50.914;13.858;2022-07-24T13:56:54;3.50;;;2.40;;
36189;SDS011;22232;50.914;13.858;2022-07-24T13:59:23;2.95;;;2.65;;
36189;SDS011;22232;50.914;13.858;2022-07-24T14:01:51;2.60;;;2.38;;
36189;SDS011;22232;50.914;13.858;2022-07-24T14:04:19;4.57;;;2.80;;
36189;SDS011;22232;50.914;13.858;2022-07-24T14:06:53;4.00;;;2.47;;
36189;SDS011;22232;50.914;13.858;2022-07-24T14:09:23;3.28;;;2.33;;
36189;SDS011;22232;50.914;13.858;2022-07-24T14:11:53;8.60;;;2.58;;
36189;SDS011;22232;50.914;13.858;2022-07-24T14:14:21;2.75;;;2.55;;
36189;SDS011;22232;50.914;13.858;2022-07-24T14:16:49;2.88;;;2.42;;
36189;SDS011;22232;50.914;13.858;2022-07-24T14:19:17;2.30;;;2.10;;
36189;SDS011;22232;50.914;13.858;2022-07-24T14:21:45;2.83;;;2.17;;
36189;SDS011;22232;50.914;13.858;2022-07-24T14:24:16;2.47;;;2.28;;
36189;SDS011;22232;50.914;13.858;2022-07-24T14:26:47;4.55;;;2.40;;
36189;SDS011;22232;50.914;13.858;2022-07-24T14:29:15;2.90;;;2.42;;
36189;SDS011;22232;50.914;13.858;2022-07-24T14:31:43;4.32;;;2.60;;
36189;SDS011;22232;50.914;13.858;2022-07-24T14:34:11;7.88;;;2.53;;
36189;SDS011;22232;50.914;13.858;2022-07-24T14:36:39;2.70;;;2.22;;
36189;SDS011;22232;50.914;13.858;2022-07-24T14:39:06;3.97;;;2.50;;
36189;SDS011;22232;50.914;13.858;2022-07-24T14:41:35;5.40;;;2.33;;
36189;SDS011;22232;50.914;13.858;2022-07-24T14:44:03;2.83;;;2.45;;
36189;SDS011;22232;50.914;13.858;2022-07-24T14:46:37;4.43;;;2.55;;
36189;SDS011;22232;50.914;13.858;2022-07-24T14:49:06;2.55;;;2.35;;
36189;SDS011;22232;50.914;13.858;2022-07-24T14:51:34;6.47;;;3.05;;
36189;SDS011;22232;50.914;13.858;2022-07-24T14:54:03;4.25;;;2.58;;
36189;SDS011;22232;50.914;13.858;2022-07-24T14:56:31;2.53;;;2.22;;
36189;SDS011;22232;50.914;13.858;2022-07-24T14:58:59;28.38;;;3.92;;
36189;SDS011;22232;50.914;13.858;2022-07-24T15:01:26;2.92;;;2.53;;
36189;SDS011;22232;50.914;13.858;2022-07-24T15:03:59;2.83;;;2.60;;
36189;SDS011;22232;50.914;13.858;2022-07-24T15:06:28;2.92;;;2.50;;
36189;SDS011;22232;50.914;13.858;2022-07-24T15:08:56;3.13;;;2.83;;
36189;SDS011;22232;50.914;13.858;2022-07-24T15:11:24;4.35;;;2.70;;
36189;SDS011;22232;50.914;13.858;2022-07-24T15:13:52;3.83;;;2.28;;
36189;SDS011;22232;50.914;13.858;2022-07-24T15:16:20;16.27;;;3.70;;
36189;SDS011;22232;50.914;13.858;2022-07-24T15:18:48;4.25;;;2.80;;
36189;SDS011;22232;50.914;13.858;2022-07-24T15:21:16;4.55;;;2.55;;
36189;SDS011;22232;50.914;13.858;2022-07-24T15:23:43;3.78;;;2.70;;
36189;SDS011;22232;50.914;13.858;2022-07-24T15:26:11;5.32;;;2.72;;
36189;SDS011;22232;50.914;13.858;2022-07-24T15:28:38;4.40;;;2.70;;
36189;SDS011;22232;50.914;13.858;2022-07-24T15:31:06;3.83;;;2.45;;